sensor_id;sensor_type;location;lat;lon;timestamp;P1;durP1;ratioP1;P2;durP2;ratioP2
53151;SDS011;39234;53.158;6.322;2022-10-17T00:01:09;12.05;;;3.10;;
53151;SDS011;39234;53.158;6.322;2022-10-17T00:03:36;17.35;;;2.60;;
53151;SDS011;39234;53.158;6.322;2022-10-17T00:06:07;10.13;;;2.38;;
53151;SDS011;39234;53.158;6.322;2022-10-17T00:08:36;12.70;;;3.67;;
53151;SDS011;39234;53.158;6.322;2022-10-17T00:11:04;8.55;;;2.30;;
53151;SDS011;39234;53.158;6.322;2022-10-17T00:13:31;11.32;;;2.20;;
53151;SDS011;39234;53.158;6.322;2022-10-17T00:15:58;11.43;;;2.17;;
53151;SDS011;39234;53.158;6.322;2022-10-17T00:18:24;13.05;;;2.10;;
53151;SDS011;39234;53.158;6.322;2022-10-17T00:20:50;11.48;;;2.83;;
53151;SDS011;39234;53.158;6.322;2022-10-17T00:23:16;11.60;;;2.40;;
53151;SDS011;39234;53.158;6.322;2022-10-17T00:25:42;11.80;;;2.17;;
53151;SDS011;39234;53.158;6.322;2022-10-17T00:28:11;14.98;;;2.55;;
53151;SDS011;39234;53.158;6.322;2022-10-17T00:30:37;13.90;;;3.53;;
53151;SDS011;39234;53.158;6.322;2022-10-17T00:33:03;14.93;;;3.10;;
53151;SDS011;39234;53.158;6.322;2022-10-17T00:35:29;15.00;;;3.17;;
53151;SDS011;39234;53.158;6.322;2022-10-17T00:37:55;18.38;;;3.05;;
53151;SDS011;39234;53.158;6.322;2022-10-17T00:40:21;10.75;;;2.50;;
53151;SDS011;39234;53.158;6.322;2022-10-17T00:42:47;17.80;;;3.22;;
53151;SDS011;39234;53.158;6.322;2022-10-17T00:45:18;13.90;;;3.95;;
53151;SDS011;39234;53.158;6.322;2022-10-17T00:47:46;12.85;;;2.70;;
53151;SDS011;39234;53.158;6.322;2022-10-17T00:50:15;11.43;;;3.40;;
53151;SDS011;39234;53.158;6.322;2022-10-17T00:52:42;10.02;;;2.58;;
53151;SDS011;39234;53.158;6.322;2022-10-17T00:55:12;13.38;;;3.15;;
53151;SDS011;39234;53.158;6.322;2022-10-17T00:57:49;8.38;;;2.53;;
53151;SDS011;39234;53.158;6.322;2022-10-17T01:00:16;14.55;;;2.80;;
53151;SDS011;39234;53.158;6.322;2022-10-17T01:02:42;11.88;;;3.28;;
53151;SDS011;39234;53.158;6.322;2022-10-17T01:05:08;13.48;;;2.95;;
53151;SDS011;39234;53.158;6.322;2022-10-17T01:07:35;13.50;;;2.97;;
53151;SDS011;39234;53.158;6.322;2022-10-17T01:10:04;13.00;;;2.90;;
53151;SDS011;39234;53.158;6.322;2022-10-17T01:12:43;11.27;;;3.42;;
53151;SDS011;39234;53.158;6.322;2022-10-17T01:32:31;10.25;;;3.10;;
53151;SDS011;39234;53.158;6.322;2022-10-17T01:35:06;12.93;;;3.38;;
53151;SDS011;39234;53.158;6.322;2022-10-17T01:37:58;8.35;;;3.00;;
53151;SDS011;39234;53.158;6.322;2022-10-17T01:40:38;10.00;;;2.85;;
53151;SDS011;39234;53.158;6.322;2022-10-17T01:43:22;13.05;;;3.47;;
53151;SDS011;39234;53.158;6.322;2022-10-17T01:45:59;9.55;;;3.42;;
53151;SDS011;39234;53.158;6.322;2022-10-17T01:48:47;12.40;;;3.47;;
53151;SDS011;39234;53.158;6.322;2022-10-17T01:51:17;13.27;;;3.53;;
53151;SDS011;39234;53.158;6.322;2022-10-17T01:53:51;12.35;;;3.25;;
53151;SDS011;39234;53.158;6.322;2022-10-17T01:56:30;11.73;;;3.33;;
53151;SDS011;39234;53.158;6.322;2022-10-17T01:59:19;11.88;;;3.63;;
53151;SDS011;39234;53.158;6.322;2022-10-17T02:01:47;9.50;;;3.58;;
53151;SDS011;39234;53.158;6.322;2022-10-17T02:04:16;12.15;;;3.28;;
53151;SDS011;39234;53.158;6.322;2022-10-17T02:06:42;15.93;;;3.63;;
53151;SDS011;39234;53.158;6.322;2022-10-17T02:09:19;11.38;;;3.83;;
53151;SDS011;39234;53.158;6.322;2022-10-17T02:14:37;12.30;;;3.95;;
53151;SDS011;39234;53.158;6.322;2022-10-17T02:22:50;11.25;;;3.92;;
53151;SDS011;39234;53.158;6.322;2022-10-17T02:30:54;10.02;;;4.40;;
53151;SDS011;39234;53.158;6.322;2022-10-17T02:33:29;12.27;;;3.97;;
53151;SDS011;39234;53.158;6.322;2022-10-17T02:36:01;11.95;;;4.05;;
53151;SDS011;39234;53.158;6.322;2022-10-17T02:38:31;10.73;;;3.90;;
53151;SDS011;39234;53.158;6.322;2022-10-17T02:40:58;10.00;;;4.10;;
53151;SDS011;39234;53.158;6.322;2022-10-17T02:43:25;12.75;;;4.38;;
53151;SDS011;39234;53.158;6.322;2022-10-17T02:45:52;11.85;;;4.13;;
53151;SDS011;39234;53.158;6.322;2022-10-17T02:48:26;7.75;;;3.95;;
53151;SDS011;39234;53.158;6.322;2022-10-17T02:53:46;14.65;;;4.22;;
53151;SDS011;39234;53.158;6.322;2022-10-17T02:56:19;14.00;;;6.00;;
53151;SDS011;39234;53.158;6.322;2022-10-17T02:58:46;10.30;;;4.80;;
53151;SDS011;39234;53.158;6.322;2022-10-17T03:01:15;13.52;;;5.65;;
53151;SDS011;39234;53.158;6.322;2022-10-17T03:03:43;9.50;;;4.90;;
53151;SDS011;39234;53.158;6.322;2022-10-17T03:06:08;11.98;;;4.65;;
53151;SDS011;39234;53.158;6.322;2022-10-17T03:08:34;13.38;;;6.32;;
53151;SDS011;39234;53.158;6.322;2022-10-17T03:11:00;8.93;;;5.43;;
53151;SDS011;39234;53.158;6.322;2022-10-17T03:13:27;15.18;;;6.88;;
53151;SDS011;39234;53.158;6.322;2022-10-17T03:15:54;14.63;;;6.30;;
53151;SDS011;39234;53.158;6.322;2022-10-17T03:18:21;10.30;;;5.88;;
53151;SDS011;39234;53.158;6.322;2022-10-17T03:20:46;18.13;;;6.32;;
53151;SDS011;39234;53.158;6.322;2022-10-17T03:23:12;10.07;;;6.40;;
53151;SDS011;39234;53.158;6.322;2022-10-17T03:25:38;12.98;;;7.13;;
53151;SDS011;39234;53.158;6.322;2022-10-17T03:28:04;11.43;;;7.47;;
53151;SDS011;39234;53.158;6.322;2022-10-17T03:30:30;13.50;;;8.20;;
53151;SDS011;39234;53.158;6.322;2022-10-17T03:32:57;10.32;;;7.15;;
53151;SDS011;39234;53.158;6.322;2022-10-17T03:35:23;14.90;;;7.63;;
53151;SDS011;39234;53.158;6.322;2022-10-17T03:37:49;13.48;;;7.63;;
53151;SDS011;39234;53.158;6.322;2022-10-17T03:40:15;15.32;;;8.10;;
53151;SDS011;39234;53.158;6.322;2022-10-17T03:42:41;12.45;;;7.88;;
53151;SDS011;39234;53.158;6.322;2022-10-17T03:45:07;15.70;;;8.15;;
53151;SDS011;39234;53.158;6.322;2022-10-17T03:47:33;16.13;;;8.95;;
53151;SDS011;39234;53.158;6.322;2022-10-17T03:49:58;16.52;;;9.07;;
53151;SDS011;39234;53.158;6.322;2022-10-17T03:52:24;15.50;;;9.32;;
53151;SDS011;39234;53.158;6.322;2022-10-17T03:54:50;16.50;;;8.63;;
53151;SDS011;39234;53.158;6.322;2022-10-17T03:57:16;13.15;;;9.40;;
53151;SDS011;39234;53.158;6.322;2022-10-17T03:59:42;13.07;;;9.05;;
53151;SDS011;39234;53.158;6.322;2022-10-17T04:02:08;14.65;;;9.50;;
53151;SDS011;39234;53.158;6.322;2022-10-17T04:04:34;15.57;;;10.35;;
53151;SDS011;39234;53.158;6.322;2022-10-17T04:06:59;12.65;;;10.25;;
53151;SDS011;39234;53.158;6.322;2022-10-17T04:09:25;21.05;;;10.25;;
53151;SDS011;39234;53.158;6.322;2022-10-17T04:11:51;14.32;;;11.20;;
53151;SDS011;39234;53.158;6.322;2022-10-17T04:14:17;15.88;;;10.50;;
53151;SDS011;39234;53.158;6.322;2022-10-17T04:16:42;15.80;;;10.60;;
53151;SDS011;39234;53.158;6.322;2022-10-17T04:19:09;16.52;;;11.50;;
53151;SDS011;39234;53.158;6.322;2022-10-17T04:21:37;16.42;;;11.60;;
53151;SDS011;39234;53.158;6.322;2022-10-17T04:24:03;16.23;;;10.80;;
53151;SDS011;39234;53.158;6.322;2022-10-17T04:26:29;15.50;;;11.82;;
53151;SDS011;39234;53.158;6.322;2022-10-17T04:28:54;18.48;;;12.43;;
53151;SDS011;39234;53.158;6.322;2022-10-17T04:31:20;17.25;;;11.68;;
53151;SDS011;39234;53.158;6.322;2022-10-17T04:33:47;21.77;;;13.68;;
53151;SDS011;39234;53.158;6.322;2022-10-17T04:36:15;16.15;;;12.95;;
53151;SDS011;39234;53.158;6.322;2022-10-17T04:38:42;18.05;;;14.35;;
53151;SDS011;39234;53.158;6.322;2022-10-17T04:41:12;16.35;;;12.93;;
53151;SDS011;39234;53.158;6.322;2022-10-17T04:43:39;15.17;;;13.57;;
53151;SDS011;39234;53.158;6.322;2022-10-17T04:46:09;21.25;;;14.82;;
53151;SDS011;39234;53.158;6.322;2022-10-17T04:48:36;17.60;;;14.60;;
53151;SDS011;39234;53.158;6.322;2022-10-17T04:51:07;17.83;;;15.15;;
53151;SDS011;39234;53.158;6.322;2022-10-17T04:53:36;17.95;;;14.60;;
53151;SDS011;39234;53.158;6.322;2022-10-17T04:56:08;21.30;;;16.08;;
53151;SDS011;39234;53.158;6.322;2022-10-17T04:58:35;21.20;;;16.77;;
53151;SDS011;39234;53.158;6.322;2022-10-17T05:01:05;21.27;;;16.08;;
53151;SDS011;39234;53.158;6.322;2022-10-17T05:03:38;19.08;;;16.23;;
53151;SDS011;39234;53.158;6.322;2022-10-17T05:06:05;22.98;;;16.30;;
53151;SDS011;39234;53.158;6.322;2022-10-17T05:08:35;19.90;;;16.73;;
53151;SDS011;39234;53.158;6.322;2022-10-17T05:11:01;25.55;;;17.77;;
53151;SDS011;39234;53.158;6.322;2022-10-17T05:13:28;22.65;;;17.48;;
53151;SDS011;39234;53.158;6.322;2022-10-17T05:15:57;20.73;;;17.17;;
53151;SDS011;39234;53.158;6.322;2022-10-17T05:18:23;22.35;;;16.45;;
53151;SDS011;39234;53.158;6.322;2022-10-17T05:20:49;19.50;;;16.08;;
53151;SDS011;39234;53.158;6.322;2022-10-17T05:23:15;21.23;;;16.70;;
53151;SDS011;39234;53.158;6.322;2022-10-17T05:25:40;23.40;;;17.48;;
53151;SDS011;39234;53.158;6.322;2022-10-17T05:28:06;20.40;;;16.60;;
53151;SDS011;39234;53.158;6.322;2022-10-17T05:30:33;20.75;;;16.50;;
53151;SDS011;39234;53.158;6.322;2022-10-17T05:33:00;22.13;;;15.95;;
53151;SDS011;39234;53.158;6.322;2022-10-17T05:35:26;26.17;;;17.08;;
53151;SDS011;39234;53.158;6.322;2022-10-17T05:37:52;21.95;;;17.92;;
53151;SDS011;39234;53.158;6.322;2022-10-17T05:40:18;22.00;;;15.85;;
53151;SDS011;39234;53.158;6.322;2022-10-17T05:42:45;24.73;;;17.25;;
53151;SDS011;39234;53.158;6.322;2022-10-17T05:45:12;21.00;;;17.60;;
53151;SDS011;39234;53.158;6.322;2022-10-17T05:47:38;20.42;;;15.13;;
53151;SDS011;39234;53.158;6.322;2022-10-17T05:50:04;22.08;;;18.45;;
53151;SDS011;39234;53.158;6.322;2022-10-17T05:52:30;26.60;;;17.90;;
53151;SDS011;39234;53.158;6.322;2022-10-17T05:54:56;20.20;;;17.35;;
53151;SDS011;39234;53.158;6.322;2022-10-17T05:57:25;19.73;;;17.60;;
53151;SDS011;39234;53.158;6.322;2022-10-17T05:59:51;22.83;;;17.50;;
53151;SDS011;39234;53.158;6.322;2022-10-17T06:02:16;24.70;;;17.48;;
53151;SDS011;39234;53.158;6.322;2022-10-17T06:04:42;19.92;;;17.00;;
53151;SDS011;39234;53.158;6.322;2022-10-17T06:07:13;28.77;;;18.98;;
53151;SDS011;39234;53.158;6.322;2022-10-17T06:09:39;25.17;;;18.23;;
53151;SDS011;39234;53.158;6.322;2022-10-17T06:12:05;25.48;;;17.67;;
53151;SDS011;39234;53.158;6.322;2022-10-17T06:14:31;22.02;;;18.02;;
53151;SDS011;39234;53.158;6.322;2022-10-17T06:16:57;22.73;;;17.20;;
53151;SDS011;39234;53.158;6.322;2022-10-17T06:19:23;21.83;;;17.63;;
53151;SDS011;39234;53.158;6.322;2022-10-17T06:21:49;23.85;;;18.50;;
53151;SDS011;39234;53.158;6.322;2022-10-17T06:24:15;23.23;;;17.17;;
53151;SDS011;39234;53.158;6.322;2022-10-17T06:26:40;26.10;;;16.80;;
53151;SDS011;39234;53.158;6.322;2022-10-17T06:29:06;23.40;;;17.88;;
53151;SDS011;39234;53.158;6.322;2022-10-17T06:31:32;25.08;;;17.90;;
53151;SDS011;39234;53.158;6.322;2022-10-17T06:33:57;24.55;;;17.30;;
53151;SDS011;39234;53.158;6.322;2022-10-17T06:36:23;25.52;;;17.45;;
53151;SDS011;39234;53.158;6.322;2022-10-17T06:38:49;20.80;;;17.08;;
53151;SDS011;39234;53.158;6.322;2022-10-17T06:41:15;21.15;;;17.27;;
53151;SDS011;39234;53.158;6.322;2022-10-17T06:43:43;23.42;;;17.55;;
53151;SDS011;39234;53.158;6.322;2022-10-17T06:46:10;24.95;;;18.02;;
53151;SDS011;39234;53.158;6.322;2022-10-17T06:48:37;25.65;;;17.92;;
53151;SDS011;39234;53.158;6.322;2022-10-17T06:51:03;25.25;;;19.13;;
53151;SDS011;39234;53.158;6.322;2022-10-17T06:53:31;23.92;;;17.15;;
53151;SDS011;39234;53.158;6.322;2022-10-17T06:55:58;25.35;;;16.77;;
53151;SDS011;39234;53.158;6.322;2022-10-17T06:58:35;23.73;;;17.67;;
53151;SDS011;39234;53.158;6.322;2022-10-17T07:01:09;22.02;;;17.08;;
53151;SDS011;39234;53.158;6.322;2022-10-17T07:03:36;21.55;;;16.05;;
53151;SDS011;39234;53.158;6.322;2022-10-17T07:06:03;26.05;;;16.95;;
53151;SDS011;39234;53.158;6.322;2022-10-17T07:08:29;21.05;;;17.40;;
53151;SDS011;39234;53.158;6.322;2022-10-17T07:10:55;19.75;;;15.93;;
53151;SDS011;39234;53.158;6.322;2022-10-17T07:13:21;20.08;;;15.45;;
53151;SDS011;39234;53.158;6.322;2022-10-17T07:15:47;20.75;;;16.38;;
53151;SDS011;39234;53.158;6.322;2022-10-17T07:18:12;22.17;;;14.90;;
53151;SDS011;39234;53.158;6.322;2022-10-17T07:20:38;20.05;;;14.13;;
53151;SDS011;39234;53.158;6.322;2022-10-17T07:23:04;19.77;;;14.35;;
53151;SDS011;39234;53.158;6.322;2022-10-17T07:25:31;16.95;;;12.82;;
53151;SDS011;39234;53.158;6.322;2022-10-17T07:27:56;19.65;;;13.60;;
53151;SDS011;39234;53.158;6.322;2022-10-17T07:30:22;18.90;;;13.45;;
53151;SDS011;39234;53.158;6.322;2022-10-17T07:32:51;19.65;;;14.23;;
53151;SDS011;39234;53.158;6.322;2022-10-17T07:35:17;16.58;;;13.10;;
53151;SDS011;39234;53.158;6.322;2022-10-17T07:37:43;20.05;;;13.18;;
53151;SDS011;39234;53.158;6.322;2022-10-17T07:40:09;18.88;;;12.77;;
53151;SDS011;39234;53.158;6.322;2022-10-17T07:42:35;18.73;;;12.13;;
53151;SDS011;39234;53.158;6.322;2022-10-17T07:45:02;14.95;;;11.65;;
53151;SDS011;39234;53.158;6.322;2022-10-17T07:47:28;16.98;;;11.38;;
53151;SDS011;39234;53.158;6.322;2022-10-17T07:49:55;17.83;;;12.40;;
53151;SDS011;39234;53.158;6.322;2022-10-17T07:52:21;14.65;;;11.10;;
53151;SDS011;39234;53.158;6.322;2022-10-17T07:54:47;15.55;;;10.98;;
53151;SDS011;39234;53.158;6.322;2022-10-17T07:57:13;17.30;;;11.38;;
53151;SDS011;39234;53.158;6.322;2022-10-17T07:59:39;14.80;;;9.98;;
53151;SDS011;39234;53.158;6.322;2022-10-17T08:02:04;12.20;;;10.02;;
53151;SDS011;39234;53.158;6.322;2022-10-17T08:04:32;14.35;;;9.88;;
53151;SDS011;39234;53.158;6.322;2022-10-17T08:06:59;13.52;;;9.90;;
53151;SDS011;39234;53.158;6.322;2022-10-17T08:09:25;18.80;;;9.88;;
53151;SDS011;39234;53.158;6.322;2022-10-17T08:11:50;11.98;;;8.57;;
53151;SDS011;39234;53.158;6.322;2022-10-17T08:14:16;11.95;;;8.63;;
53151;SDS011;39234;53.158;6.322;2022-10-17T08:16:42;16.30;;;8.65;;
53151;SDS011;39234;53.158;6.322;2022-10-17T08:19:08;12.00;;;7.60;;
53151;SDS011;39234;53.158;6.322;2022-10-17T08:21:35;13.48;;;7.88;;
53151;SDS011;39234;53.158;6.322;2022-10-17T08:24:02;10.73;;;8.05;;
53151;SDS011;39234;53.158;6.322;2022-10-17T08:26:28;13.15;;;7.88;;
53151;SDS011;39234;53.158;6.322;2022-10-17T08:28:54;11.60;;;8.07;;
53151;SDS011;39234;53.158;6.322;2022-10-17T08:31:21;13.45;;;8.02;;
53151;SDS011;39234;53.158;6.322;2022-10-17T08:33:47;12.05;;;7.60;;
53151;SDS011;39234;53.158;6.322;2022-10-17T08:36:14;10.25;;;7.88;;
53151;SDS011;39234;53.158;6.322;2022-10-17T08:38:41;11.50;;;8.38;;
53151;SDS011;39234;53.158;6.322;2022-10-17T08:41:21;12.25;;;7.43;;
53151;SDS011;39234;53.158;6.322;2022-10-17T08:46:31;13.13;;;7.97;;
53151;SDS011;39234;53.158;6.322;2022-10-17T08:49:02;14.23;;;8.20;;
53151;SDS011;39234;53.158;6.322;2022-10-17T08:51:31;15.25;;;7.45;;
53151;SDS011;39234;53.158;6.322;2022-10-17T08:54:04;12.55;;;7.70;;
53151;SDS011;39234;53.158;6.322;2022-10-17T08:56:41;15.80;;;8.13;;
53151;SDS011;39234;53.158;6.322;2022-10-17T08:59:12;15.93;;;8.65;;
53151;SDS011;39234;53.158;6.322;2022-10-17T09:07:12;10.57;;;7.10;;
53151;SDS011;39234;53.158;6.322;2022-10-17T09:09:48;14.07;;;7.50;;
53151;SDS011;39234;53.158;6.322;2022-10-17T09:15:07;12.80;;;7.82;;
53151;SDS011;39234;53.158;6.322;2022-10-17T09:18:17;9.95;;;6.93;;
53151;SDS011;39234;53.158;6.322;2022-10-17T09:20:52;10.68;;;7.32;;
53151;SDS011;39234;53.158;6.322;2022-10-17T09:23:30;14.15;;;7.40;;
53151;SDS011;39234;53.158;6.322;2022-10-17T09:26:01;11.45;;;7.97;;
53151;SDS011;39234;53.158;6.322;2022-10-17T09:28:31;15.93;;;8.55;;
53151;SDS011;39234;53.158;6.322;2022-10-17T09:31:05;11.32;;;8.27;;
53151;SDS011;39234;53.158;6.322;2022-10-17T09:33:45;16.48;;;8.95;;
53151;SDS011;39234;53.158;6.322;2022-10-17T09:38:49;14.60;;;8.80;;
53151;SDS011;39234;53.158;6.322;2022-10-17T09:41:22;10.20;;;8.60;;
53151;SDS011;39234;53.158;6.322;2022-10-17T09:43:53;14.20;;;8.73;;
53151;SDS011;39234;53.158;6.322;2022-10-17T09:46:35;16.60;;;9.75;;
53151;SDS011;39234;53.158;6.322;2022-10-17T09:49:05;14.45;;;9.18;;
53151;SDS011;39234;53.158;6.322;2022-10-17T09:51:41;15.05;;;9.65;;
53151;SDS011;39234;53.158;6.322;2022-10-17T09:54:18;13.52;;;10.63;;
53151;SDS011;39234;53.158;6.322;2022-10-17T09:57:05;14.30;;;10.80;;
53151;SDS011;39234;53.158;6.322;2022-10-17T09:59:35;19.27;;;10.55;;
53151;SDS011;39234;53.158;6.322;2022-10-17T10:04:59;16.15;;;11.93;;
53151;SDS011;39234;53.158;6.322;2022-10-17T10:07:32;15.38;;;11.13;;
53151;SDS011;39234;53.158;6.322;2022-10-17T10:09:59;19.42;;;12.70;;
53151;SDS011;39234;53.158;6.322;2022-10-17T10:12:37;16.77;;;12.63;;
53151;SDS011;39234;53.158;6.322;2022-10-17T10:15:28;19.67;;;12.43;;
53151;SDS011;39234;53.158;6.322;2022-10-17T10:17:59;18.25;;;12.50;;
53151;SDS011;39234;53.158;6.322;2022-10-17T10:23:17;15.63;;;11.35;;
53151;SDS011;39234;53.158;6.322;2022-10-17T10:28:20;16.42;;;12.45;;
53151;SDS011;39234;53.158;6.322;2022-10-17T10:30:51;17.83;;;11.77;;
53151;SDS011;39234;53.158;6.322;2022-10-17T10:33:19;21.85;;;12.82;;
53151;SDS011;39234;53.158;6.322;2022-10-17T10:36:01;17.58;;;13.05;;
53151;SDS011;39234;53.158;6.322;2022-10-17T10:38:29;16.45;;;12.52;;
53151;SDS011;39234;53.158;6.322;2022-10-17T10:41:06;18.20;;;12.20;;
53151;SDS011;39234;53.158;6.322;2022-10-17T10:43:39;19.27;;;13.13;;
53151;SDS011;39234;53.158;6.322;2022-10-17T10:46:20;18.73;;;12.48;;
53151;SDS011;39234;53.158;6.322;2022-10-17T10:51:34;16.08;;;12.63;;
53151;SDS011;39234;53.158;6.322;2022-10-17T10:56:50;19.10;;;12.90;;
53151;SDS011;39234;53.158;6.322;2022-10-17T11:02:14;20.90;;;13.75;;
53151;SDS011;39234;53.158;6.322;2022-10-17T11:07:36;16.27;;;12.30;;
53151;SDS011;39234;53.158;6.322;2022-10-17T11:18:45;18.55;;;12.98;;
53151;SDS011;39234;53.158;6.322;2022-10-17T11:21:15;17.40;;;11.82;;
53151;SDS011;39234;53.158;6.322;2022-10-17T11:24:01;18.67;;;12.50;;
53151;SDS011;39234;53.158;6.322;2022-10-17T11:26:33;14.98;;;11.88;;
53151;SDS011;39234;53.158;6.322;2022-10-17T11:29:09;16.58;;;11.80;;
53151;SDS011;39234;53.158;6.322;2022-10-17T11:31:38;18.15;;;12.13;;
53151;SDS011;39234;53.158;6.322;2022-10-17T11:34:19;15.43;;;10.13;;
53151;SDS011;39234;53.158;6.322;2022-10-17T11:36:56;13.27;;;9.70;;
53151;SDS011;39234;53.158;6.322;2022-10-17T11:42:11;15.95;;;11.02;;
53151;SDS011;39234;53.158;6.322;2022-10-17T11:44:44;16.15;;;11.07;;
53151;SDS011;39234;53.158;6.322;2022-10-17T11:50:06;11.23;;;8.90;;
53151;SDS011;39234;53.158;6.322;2022-10-17T11:52:59;9.80;;;7.50;;
53151;SDS011;39234;53.158;6.322;2022-10-17T11:55:28;9.60;;;6.50;;
53151;SDS011;39234;53.158;6.322;2022-10-17T12:01:03;10.13;;;6.38;;
53151;SDS011;39234;53.158;6.322;2022-10-17T12:04:03;13.68;;;6.25;;
53151;SDS011;39234;53.158;6.322;2022-10-17T12:07:00;10.95;;;6.68;;
53151;SDS011;39234;53.158;6.322;2022-10-17T12:09:35;9.52;;;6.40;;
53151;SDS011;39234;53.158;6.322;2022-10-17T12:12:10;11.05;;;6.55;;
53151;SDS011;39234;53.158;6.322;2022-10-17T12:15:40;9.45;;;7.22;;
53151;SDS011;39234;53.158;6.322;2022-10-17T12:17:43;14.18;;;8.23;;
53151;SDS011;39234;53.158;6.322;2022-10-17T12:22:52;9.77;;;7.38;;
53151;SDS011;39234;53.158;6.322;2022-10-17T12:25:37;8.90;;;6.20;;
53151;SDS011;39234;53.158;6.322;2022-10-17T12:34:14;11.65;;;5.65;;
53151;SDS011;39234;53.158;6.322;2022-10-17T12:36:41;6.80;;;4.85;;
53151;SDS011;39234;53.158;6.322;2022-10-17T12:54:44;8.27;;;4.88;;
53151;SDS011;39234;53.158;6.322;2022-10-17T12:57:20;9.98;;;4.68;;
53151;SDS011;39234;53.158;6.322;2022-10-17T12:59:46;9.45;;;4.80;;
53151;SDS011;39234;53.158;6.322;2022-10-17T13:02:16;11.35;;;4.75;;
53151;SDS011;39234;53.158;6.322;2022-10-17T13:04:45;9.77;;;4.20;;
53151;SDS011;39234;53.158;6.322;2022-10-17T13:07:17;9.32;;;4.60;;
53151;SDS011;39234;53.158;6.322;2022-10-17T13:09:45;7.47;;;4.30;;
53151;SDS011;39234;53.158;6.322;2022-10-17T13:12:12;10.55;;;4.50;;
53151;SDS011;39234;53.158;6.322;2022-10-17T13:14:42;10.70;;;4.53;;
53151;SDS011;39234;53.158;6.322;2022-10-17T13:17:21;8.35;;;4.13;;
53151;SDS011;39234;53.158;6.322;2022-10-17T13:19:49;8.63;;;4.60;;
53151;SDS011;39234;53.158;6.322;2022-10-17T13:22:18;9.68;;;5.55;;
53151;SDS011;39234;53.158;6.322;2022-10-17T13:24:46;9.70;;;4.00;;
53151;SDS011;39234;53.158;6.322;2022-10-17T13:27:46;11.02;;;4.70;;
53151;SDS011;39234;53.158;6.322;2022-10-17T13:30:27;9.15;;;3.80;;
53151;SDS011;39234;53.158;6.322;2022-10-17T13:32:53;7.28;;;4.05;;
53151;SDS011;39234;53.158;6.322;2022-10-17T13:35:34;7.70;;;3.53;;
53151;SDS011;39234;53.158;6.322;2022-10-17T13:38:03;7.75;;;3.10;;
53151;SDS011;39234;53.158;6.322;2022-10-17T13:40:36;6.55;;;3.13;;
53151;SDS011;39234;53.158;6.322;2022-10-17T13:43:15;6.28;;;3.35;;
53151;SDS011;39234;53.158;6.322;2022-10-17T13:45:44;9.43;;;3.50;;
53151;SDS011;39234;53.158;6.322;2022-10-17T13:48:32;8.40;;;3.20;;
53151;SDS011;39234;53.158;6.322;2022-10-17T13:51:02;8.93;;;3.53;;
53151;SDS011;39234;53.158;6.322;2022-10-17T13:53:37;6.88;;;3.42;;
53151;SDS011;39234;53.158;6.322;2022-10-17T14:01:14;7.38;;;3.60;;
53151;SDS011;39234;53.158;6.322;2022-10-17T14:03:42;8.93;;;3.70;;
53151;SDS011;39234;53.158;6.322;2022-10-17T14:06:13;7.50;;;3.30;;
53151;SDS011;39234;53.158;6.322;2022-10-17T14:09:02;8.73;;;3.80;;
53151;SDS011;39234;53.158;6.322;2022-10-17T14:14:05;6.13;;;3.38;;
53151;SDS011;39234;53.158;6.322;2022-10-17T14:16:40;11.45;;;4.00;;
53151;SDS011;39234;53.158;6.322;2022-10-17T14:19:26;8.73;;;3.90;;
53151;SDS011;39234;53.158;6.322;2022-10-17T14:22:16;7.05;;;3.40;;
53151;SDS011;39234;53.158;6.322;2022-10-17T14:24:44;7.80;;;3.40;;
53151;SDS011;39234;53.158;6.322;2022-10-17T14:30:31;7.03;;;3.60;;
53151;SDS011;39234;53.158;6.322;2022-10-17T14:33:00;10.88;;;3.55;;
53151;SDS011;39234;53.158;6.322;2022-10-17T14:35:28;8.98;;;3.15;;
53151;SDS011;39234;53.158;6.322;2022-10-17T14:37:58;5.28;;;2.65;;
53151;SDS011;39234;53.158;6.322;2022-10-17T14:40:26;8.45;;;2.88;;
53151;SDS011;39234;53.158;6.322;2022-10-17T14:42:53;8.27;;;2.88;;
53151;SDS011;39234;53.158;6.322;2022-10-17T14:45:23;6.13;;;3.00;;
53151;SDS011;39234;53.158;6.322;2022-10-17T14:47:52;6.53;;;2.95;;
53151;SDS011;39234;53.158;6.322;2022-10-17T14:50:24;6.82;;;3.03;;
53151;SDS011;39234;53.158;6.322;2022-10-17T14:52:59;8.13;;;2.95;;
53151;SDS011;39234;53.158;6.322;2022-10-17T14:55:53;7.93;;;2.90;;
53151;SDS011;39234;53.158;6.322;2022-10-17T14:58:25;6.30;;;2.53;;
53151;SDS011;39234;53.158;6.322;2022-10-17T15:03:22;8.70;;;2.78;;
53151;SDS011;39234;53.158;6.322;2022-10-17T15:05:49;5.82;;;2.67;;
53151;SDS011;39234;53.158;6.322;2022-10-17T15:08:16;8.07;;;2.75;;
53151;SDS011;39234;53.158;6.322;2022-10-17T15:10:44;8.10;;;2.40;;
53151;SDS011;39234;53.158;6.322;2022-10-17T15:13:11;6.80;;;2.78;;
53151;SDS011;39234;53.158;6.322;2022-10-17T15:15:38;6.95;;;2.53;;
53151;SDS011;39234;53.158;6.322;2022-10-17T15:18:05;7.22;;;2.20;;
53151;SDS011;39234;53.158;6.322;2022-10-17T15:20:32;7.07;;;2.63;;
53151;SDS011;39234;53.158;6.322;2022-10-17T15:22:59;8.43;;;2.50;;
53151;SDS011;39234;53.158;6.322;2022-10-17T15:25:26;6.18;;;2.38;;
53151;SDS011;39234;53.158;6.322;2022-10-17T15:27:53;6.63;;;2.60;;
53151;SDS011;39234;53.158;6.322;2022-10-17T15:30:20;7.32;;;3.08;;
53151;SDS011;39234;53.158;6.322;2022-10-17T15:32:51;7.53;;;2.63;;
53151;SDS011;39234;53.158;6.322;2022-10-17T15:35:17;9.60;;;3.00;;
53151;SDS011;39234;53.158;6.322;2022-10-17T15:37:44;7.38;;;3.05;;
53151;SDS011;39234;53.158;6.322;2022-10-17T15:40:19;8.32;;;3.67;;
53151;SDS011;39234;53.158;6.322;2022-10-17T15:42:47;10.57;;;3.58;;
53151;SDS011;39234;53.158;6.322;2022-10-17T15:45:14;9.25;;;3.95;;
53151;SDS011;39234;53.158;6.322;2022-10-17T15:47:41;9.50;;;3.55;;
53151;SDS011;39234;53.158;6.322;2022-10-17T15:50:15;7.75;;;3.10;;
53151;SDS011;39234;53.158;6.322;2022-10-17T15:52:41;6.57;;;3.35;;
53151;SDS011;39234;53.158;6.322;2022-10-17T15:55:08;5.97;;;2.90;;
53151;SDS011;39234;53.158;6.322;2022-10-17T15:57:35;7.63;;;3.00;;
53151;SDS011;39234;53.158;6.322;2022-10-17T16:00:05;10.00;;;2.97;;
53151;SDS011;39234;53.158;6.322;2022-10-17T16:02:36;7.45;;;3.00;;
53151;SDS011;39234;53.158;6.322;2022-10-17T16:05:07;8.00;;;2.78;;
53151;SDS011;39234;53.158;6.322;2022-10-17T16:07:47;10.23;;;3.30;;
53151;SDS011;39234;53.158;6.322;2022-10-17T16:10:13;7.55;;;2.78;;
53151;SDS011;39234;53.158;6.322;2022-10-17T16:12:39;7.38;;;3.03;;
53151;SDS011;39234;53.158;6.322;2022-10-17T16:15:25;8.95;;;2.83;;
53151;SDS011;39234;53.158;6.322;2022-10-17T16:17:53;6.38;;;2.97;;
53151;SDS011;39234;53.158;6.322;2022-10-17T16:20:20;10.57;;;3.35;;
53151;SDS011;39234;53.158;6.322;2022-10-17T16:22:46;8.13;;;3.30;;
53151;SDS011;39234;53.158;6.322;2022-10-17T16:25:23;6.80;;;3.00;;
53151;SDS011;39234;53.158;6.322;2022-10-17T16:27:53;8.70;;;3.15;;
53151;SDS011;39234;53.158;6.322;2022-10-17T16:30:20;7.78;;;3.30;;
53151;SDS011;39234;53.158;6.322;2022-10-17T16:32:48;14.07;;;3.33;;
53151;SDS011;39234;53.158;6.322;2022-10-17T16:35:15;7.85;;;2.97;;
53151;SDS011;39234;53.158;6.322;2022-10-17T16:37:44;11.13;;;3.55;;
53151;SDS011;39234;53.158;6.322;2022-10-17T16:40:10;10.25;;;3.85;;
53151;SDS011;39234;53.158;6.322;2022-10-17T16:42:36;8.88;;;3.70;;
53151;SDS011;39234;53.158;6.322;2022-10-17T16:45:02;13.30;;;4.20;;
53151;SDS011;39234;53.158;6.322;2022-10-17T16:47:28;7.93;;;3.97;;
53151;SDS011;39234;53.158;6.322;2022-10-17T16:49:54;13.57;;;4.13;;
53151;SDS011;39234;53.158;6.322;2022-10-17T16:52:19;8.98;;;5.18;;